createdAt,value
2022-12-26T00:00:01.885Z,0.00
2022-12-26T00:01:01.790Z,0.00
2022-12-26T00:02:01.786Z,0.00
2022-12-26T00:03:01.905Z,0.00
2022-12-26T00:04:02.043Z,0.00
2022-12-26T00:05:01.877Z,0.00
2022-12-26T00:06:01.866Z,0.00
2022-12-26T00:07:01.775Z,0.00
2022-12-26T00:08:01.714Z,0.00
2022-12-26T00:09:01.722Z,0.00
2022-12-26T00:10:01.816Z,0.00
2022-12-26T00:11:01.704Z,0.00
2022-12-26T00:12:01.705Z,0.00
2022-12-26T00:13:38.977Z,0.00
2022-12-26T00:14:02.646Z,0.00
2022-12-26T00:15:01.645Z,0.00
2022-12-26T00:16:01.706Z,0.00
2022-12-26T00:17:01.624Z,0.00
2022-12-26T00:18:01.641Z,0.00
2022-12-26T00:19:01.639Z,0.00
2022-12-26T00:20:01.632Z,0.00
2022-12-26T00:21:01.570Z,0.00
2022-12-26T00:22:01.604Z,0.00
2022-12-26T00:23:01.596Z,0.00
2022-12-26T00:24:01.543Z,0.00
2022-12-26T00:25:01.595Z,0.00
2022-12-26T00:26:01.520Z,0.00
2022-12-26T00:27:01.508Z,0.00
2022-12-26T00:28:01.532Z,0.00
2022-12-26T00:29:01.489Z,0.00
2022-12-26T00:30:01.546Z,0.00
2022-12-26T00:31:01.526Z,0.00
2022-12-26T00:32:01.523Z,0.00
2022-12-26T00:33:01.443Z,0.00
2022-12-26T00:34:01.427Z,0.00
2022-12-26T00:35:01.436Z,0.00
2022-12-26T00:36:01.409Z,0.00
2022-12-26T00:37:01.460Z,0.00
2022-12-26T00:38:01.419Z,0.00
2022-12-26T00:39:01.375Z,0.00
2022-12-26T00:40:01.394Z,0.00
2022-12-26T00:41:01.391Z,0.00
2022-12-26T00:42:01.361Z,0.00
2022-12-26T00:43:01.413Z,0.00
2022-12-26T00:44:01.326Z,0.00
2022-12-26T00:45:01.339Z,0.00
2022-12-26T00:46:01.350Z,0.00
2022-12-26T00:47:01.355Z,0.00
2022-12-26T00:48:01.283Z,0.00
2022-12-26T00:49:01.376Z,0.00
2022-12-26T00:50:13.633Z,0.00
2022-12-26T00:51:02.255Z,0.00
2022-12-26T00:52:01.265Z,0.00
2022-12-26T00:53:01.242Z,0.00
2022-12-26T00:54:01.309Z,0.00
2022-12-26T00:55:01.225Z,0.00
2022-12-26T00:56:01.203Z,0.00
2022-12-26T00:57:01.196Z,0.00
2022-12-26T00:58:01.184Z,0.00
2022-12-26T00:59:01.157Z,0.00
2022-12-26T01:00:01.354Z,0.00
2022-12-26T01:01:01.302Z,0.00
2022-12-26T01:02:01.300Z,0.00
2022-12-26T01:03:01.387Z,0.00
2022-12-26T01:04:01.154Z,0.00
2022-12-26T01:05:01.110Z,0.00
2022-12-26T01:06:01.112Z,0.00
2022-12-26T01:07:01.148Z,0.00
2022-12-26T01:08:23.409Z,0.00
2022-12-26T01:09:02.071Z,0.00
2022-12-26T01:10:01.060Z,0.00
2022-12-26T01:11:01.044Z,0.00
2022-12-26T01:12:01.023Z,0.00
2022-12-26T01:13:01.088Z,0.00
2022-12-26T01:14:01.017Z,0.00
2022-12-26T01:15:00.995Z,0.00
2022-12-26T01:16:01.032Z,0.00
2022-12-26T01:17:01.012Z,0.00
2022-12-26T01:18:00.961Z,0.00
2022-12-26T01:19:00.975Z,0.00
2022-12-26T01:20:00.941Z,0.00
2022-12-26T01:21:00.939Z,0.00
2022-12-26T01:22:00.918Z,0.00
2022-12-26T01:23:00.923Z,0.00
2022-12-26T01:24:00.902Z,0.00
2022-12-26T01:25:00.875Z,0.00
2022-12-26T01:26:18.728Z,0.00
2022-12-26T01:27:01.872Z,0.00
2022-12-26T01:28:00.854Z,0.00
2022-12-26T01:29:00.838Z,0.00
2022-12-26T01:30:00.827Z,0.00
2022-12-26T01:31:00.840Z,0.00
2022-12-26T01:32:00.932Z,0.00
2022-12-26T01:33:00.889Z,0.00
2022-12-26T01:34:00.782Z,0.00
2022-12-26T01:35:00.806Z,0.00
2022-12-26T01:36:00.779Z,0.00
2022-12-26T01:37:00.746Z,0.00
2022-12-26T01:38:00.740Z,0.00
2022-12-26T01:39:00.755Z,0.00
2022-12-26T01:40:00.751Z,0.00
2022-12-26T01:41:00.737Z,0.00
2022-12-26T01:42:00.734Z,0.00
2022-12-26T01:43:00.687Z,0.00
2022-12-26T01:44:00.698Z,0.00
2022-12-26T01:45:00.673Z,0.00
2022-12-26T01:46:00.724Z,0.00
2022-12-26T01:47:00.703Z,0.00
2022-12-26T01:48:00.645Z,0.00
2022-12-26T01:49:00.638Z,0.00
2022-12-26T01:50:00.625Z,0.00
2022-12-26T01:51:00.624Z,0.00
2022-12-26T01:52:00.593Z,0.00
2022-12-26T01:53:00.571Z,0.00
2022-12-26T01:54:40.806Z,0.00
2022-12-26T01:55:01.635Z,0.00
2022-12-26T01:56:00.565Z,0.00
2022-12-26T01:57:00.539Z,0.00
2022-12-26T01:58:00.579Z,0.00
2022-12-26T01:59:00.525Z,0.00
2022-12-26T02:00:00.535Z,0.00
2022-12-26T02:01:00.527Z,0.00
2022-12-26T02:02:00.739Z,0.00
2022-12-26T02:03:00.631Z,0.00
2022-12-26T02:04:00.460Z,0.00
2022-12-26T02:05:00.458Z,0.00
2022-12-26T02:06:00.476Z,0.00
2022-12-26T02:07:00.469Z,0.00
2022-12-26T02:08:00.422Z,0.00
2022-12-26T02:09:00.473Z,0.00
2022-12-26T02:10:00.414Z,0.00
2022-12-26T02:11:00.395Z,0.00
2022-12-26T02:12:34.443Z,0.00
2022-12-26T02:13:01.359Z,0.00
2022-12-26T02:14:00.376Z,0.00
2022-12-26T02:15:00.379Z,0.00
2022-12-26T02:16:00.347Z,0.00
2022-12-26T02:17:00.389Z,0.00
2022-12-26T02:18:00.380Z,0.00
2022-12-26T02:19:00.291Z,0.00
2022-12-26T02:20:00.295Z,0.00
2022-12-26T02:21:00.367Z,0.00
2022-12-26T02:22:00.276Z,0.00
2022-12-26T02:23:00.268Z,0.00
2022-12-26T02:24:00.241Z,0.00
2022-12-26T02:25:00.227Z,0.00
2022-12-26T02:26:00.286Z,0.00
2022-12-26T02:27:00.206Z,0.00
2022-12-26T02:28:00.204Z,0.00
2022-12-26T02:29:00.182Z,0.00
2022-12-26T02:30:00.196Z,0.00
2022-12-26T02:31:00.184Z,0.00
2022-12-26T02:32:00.334Z,0.00
2022-12-26T02:33:00.203Z,0.00
2022-12-26T02:34:00.132Z,0.00
2022-12-26T02:35:00.122Z,0.00
2022-12-26T02:36:00.131Z,0.00
2022-12-26T02:37:00.130Z,0.00
2022-12-26T02:38:00.152Z,0.00
2022-12-26T02:39:00.113Z,0.00
2022-12-26T02:40:00.150Z,0.00
2022-12-26T02:41:00.136Z,0.00
2022-12-26T02:42:00.085Z,0.00
2022-12-26T02:43:00.054Z,0.00
2022-12-26T02:44:00.030Z,0.00
2022-12-26T02:45:00.010Z,0.00
2022-12-26T02:46:00.174Z,0.00
2022-12-26T02:46:59.983Z,0.00
2022-12-26T02:47:59.974Z,0.00
2022-12-26T02:48:59.973Z,0.00
2022-12-26T02:49:59.963Z,0.00
2022-12-26T02:50:59.958Z,0.00
2022-12-26T02:51:59.987Z,0.00
2022-12-26T02:52:59.942Z,0.00
2022-12-26T02:53:59.912Z,0.00
2022-12-26T02:54:59.941Z,0.00
2022-12-26T02:55:59.971Z,0.00
2022-12-26T02:56:59.933Z,0.00
2022-12-26T02:57:59.959Z,0.00
2022-12-26T02:58:59.962Z,0.00
2022-12-26T02:59:59.884Z,0.00
2022-12-26T03:00:59.922Z,0.00
2022-12-26T03:02:00.108Z,0.00
2022-12-26T03:02:59.855Z,0.00
2022-12-26T03:03:59.886Z,0.00
2022-12-26T03:04:59.798Z,0.00
2022-12-26T03:05:59.833Z,0.00
2022-12-26T03:06:59.907Z,0.00
2022-12-26T03:07:59.756Z,0.00
2022-12-26T03:08:59.769Z,0.00
2022-12-26T03:09:59.737Z,0.00
2022-12-26T03:10:59.732Z,0.00
2022-12-26T03:11:59.915Z,0.00
2022-12-26T03:12:59.714Z,0.00
2022-12-26T03:13:59.709Z,0.00
2022-12-26T03:14:59.681Z,0.00
2022-12-26T03:15:59.670Z,0.00
2022-12-26T03:16:59.800Z,0.00
2022-12-26T03:17:59.739Z,0.00
2022-12-26T03:19:00.742Z,0.00
2022-12-26T03:19:59.670Z,0.00
2022-12-26T03:20:59.633Z,0.00
2022-12-26T03:21:59.602Z,0.00
2022-12-26T03:22:59.728Z,0.00
2022-12-26T03:23:59.592Z,0.00
2022-12-26T03:24:59.661Z,0.00
2022-12-26T03:25:59.604Z,0.00
2022-12-26T03:26:59.558Z,0.00
2022-12-26T03:27:59.577Z,0.00
2022-12-26T03:28:59.541Z,0.00
2022-12-26T03:29:59.543Z,0.00
2022-12-26T03:30:59.657Z,0.00
2022-12-26T03:31:59.518Z,0.00
2022-12-26T03:32:59.503Z,0.00
2022-12-26T03:33:59.553Z,0.00
2022-12-26T03:34:59.495Z,0.00
2022-12-26T03:35:59.499Z,0.00
2022-12-26T03:36:59.461Z,0.00
2022-12-26T03:37:59.432Z,0.00
2022-12-26T03:38:59.424Z,0.00
2022-12-26T03:39:59.437Z,0.00
2022-12-26T03:40:59.431Z,0.00
2022-12-26T03:41:59.394Z,0.00
2022-12-26T03:42:59.379Z,0.00
2022-12-26T03:43:59.417Z,0.00
2022-12-26T03:44:59.389Z,0.00
2022-12-26T03:45:59.461Z,0.00
2022-12-26T03:46:59.372Z,0.00
2022-12-26T03:47:59.330Z,0.00
2022-12-26T03:48:59.325Z,0.00
2022-12-26T03:49:59.319Z,0.00
2022-12-26T03:50:59.444Z,0.00
2022-12-26T03:51:59.300Z,0.00
2022-12-26T03:52:59.277Z,0.00
2022-12-26T03:53:59.285Z,0.00
2022-12-26T03:54:59.295Z,0.00
2022-12-26T03:55:59.248Z,0.00
2022-12-26T03:56:59.277Z,0.00
2022-12-26T03:57:59.218Z,0.00
2022-12-26T03:58:59.227Z,0.00
2022-12-26T03:59:59.292Z,0.00
2022-12-26T04:00:59.261Z,0.00
2022-12-26T04:01:59.372Z,0.00
2022-12-26T04:02:59.210Z,0.00
2022-12-26T04:03:59.276Z,0.00
2022-12-26T04:04:59.156Z,0.00
2022-12-26T04:05:59.183Z,0.00
2022-12-26T04:06:59.133Z,0.00
2022-12-26T04:07:59.119Z,0.00
2022-12-26T04:08:59.106Z,0.00
2022-12-26T04:09:59.096Z,0.00
2022-12-26T04:10:59.125Z,0.00
2022-12-26T04:11:59.065Z,0.00
2022-12-26T04:12:59.057Z,0.00
2022-12-26T04:13:59.041Z,0.00
2022-12-26T04:14:59.026Z,0.00
2022-12-26T04:15:59.190Z,0.00
2022-12-26T04:16:59.031Z,0.00
2022-12-26T04:17:59.015Z,0.00
2022-12-26T04:18:58.992Z,0.00
2022-12-26T04:19:58.995Z,0.00
2022-12-26T04:20:59.027Z,0.00
2022-12-26T04:21:59.018Z,0.00
2022-12-26T04:22:58.983Z,0.00
2022-12-26T04:23:58.930Z,0.00
2022-12-26T04:24:58.919Z,0.00
2022-12-26T04:25:58.923Z,0.00
2022-12-26T04:26:58.910Z,0.00
2022-12-26T04:27:58.912Z,0.00
2022-12-26T04:28:59.442Z,0.00
2022-12-26T04:29:58.869Z,0.00
2022-12-26T04:30:58.922Z,0.00
2022-12-26T04:31:58.846Z,0.00
2022-12-26T04:32:58.847Z,0.00
2022-12-26T04:33:58.830Z,0.00
2022-12-26T04:34:58.825Z,0.00
2022-12-26T04:35:58.823Z,0.00
2022-12-26T04:36:59.428Z,0.00
2022-12-26T04:37:58.817Z,0.00
2022-12-26T04:38:58.797Z,0.00
2022-12-26T04:39:58.796Z,0.00
2022-12-26T04:40:58.750Z,0.00
2022-12-26T04:41:58.764Z,0.00
2022-12-26T04:42:58.733Z,0.00
2022-12-26T04:43:58.739Z,0.00
2022-12-26T04:44:58.718Z,0.00
2022-12-26T04:45:58.697Z,0.00
2022-12-26T04:46:58.777Z,0.00
2022-12-26T04:47:58.698Z,0.00
2022-12-26T04:48:58.706Z,0.00
2022-12-26T04:49:58.675Z,0.00
2022-12-26T04:50:58.647Z,0.00
2022-12-26T04:51:58.622Z,0.00
2022-12-26T04:52:58.685Z,0.00
2022-12-26T04:53:58.625Z,0.00
2022-12-26T04:54:58.592Z,0.00
2022-12-26T04:55:58.599Z,0.00
2022-12-26T04:56:58.571Z,0.00
2022-12-26T04:57:58.598Z,0.00
2022-12-26T04:58:58.547Z,0.00
2022-12-26T04:59:58.535Z,0.00
2022-12-26T05:00:58.542Z,0.00
2022-12-26T05:01:58.707Z,0.00
2022-12-26T05:02:58.621Z,0.00
2022-12-26T05:03:58.513Z,0.00
2022-12-26T05:04:58.495Z,0.00
2022-12-26T05:05:58.494Z,0.00
2022-12-26T05:06:58.490Z,0.00
2022-12-26T05:07:58.457Z,0.00
2022-12-26T05:08:58.435Z,0.00
2022-12-26T05:09:58.461Z,0.00
2022-12-26T05:10:58.439Z,0.00
2022-12-26T05:11:58.399Z,0.00
2022-12-26T05:12:58.398Z,0.00
2022-12-26T05:13:58.389Z,0.00
2022-12-26T05:14:58.378Z,0.00
2022-12-26T05:15:58.420Z,0.00
2022-12-26T05:16:58.355Z,0.00
2022-12-26T05:17:58.335Z,0.00
2022-12-26T05:18:58.334Z,0.00
2022-12-26T05:19:58.315Z,0.00
2022-12-26T05:20:58.327Z,0.00
2022-12-26T05:21:58.305Z,0.00
2022-12-26T05:22:58.284Z,0.00
2022-12-26T05:23:58.283Z,0.00
2022-12-26T05:24:58.264Z,0.00
2022-12-26T05:25:58.277Z,0.00
2022-12-26T05:26:58.245Z,0.00
2022-12-26T05:27:58.231Z,0.00
2022-12-26T05:28:58.222Z,0.00
2022-12-26T05:29:58.221Z,0.00
2022-12-26T05:30:58.251Z,0.00
2022-12-26T05:31:58.244Z,0.00
2022-12-26T05:32:58.196Z,0.00
2022-12-26T05:33:58.254Z,0.00
2022-12-26T05:34:58.151Z,0.00
2022-12-26T05:35:58.250Z,0.00
2022-12-26T05:36:58.186Z,0.00
2022-12-26T05:37:58.125Z,0.00
2022-12-26T05:38:58.107Z,0.00
2022-12-26T05:39:58.101Z,0.00
2022-12-26T05:40:58.353Z,0.00
2022-12-26T05:41:58.101Z,0.00
2022-12-26T05:42:58.078Z,0.00
2022-12-26T05:43:58.053Z,0.00
2022-12-26T05:44:58.059Z,0.00
2022-12-26T05:45:58.120Z,0.00
2022-12-26T05:46:58.186Z,0.00
2022-12-26T05:47:58.065Z,0.00
2022-12-26T05:48:58.075Z,0.00
2022-12-26T05:49:57.990Z,0.00
2022-12-26T05:50:57.992Z,0.00
2022-12-26T05:51:57.994Z,0.00
2022-12-26T05:52:57.995Z,0.00
2022-12-26T05:53:57.986Z,0.00
2022-12-26T05:54:57.958Z,0.00
2022-12-26T05:55:57.933Z,0.00
2022-12-26T05:56:57.913Z,0.00
2022-12-26T05:57:57.941Z,0.00
2022-12-26T05:58:57.907Z,0.00
2022-12-26T05:59:57.939Z,0.00
2022-12-26T06:00:57.917Z,0.00
2022-12-26T06:01:57.953Z,0.00
2022-12-26T06:02:58.016Z,0.00
2022-12-26T06:03:58.014Z,0.00
2022-12-26T06:04:57.870Z,0.00
2022-12-26T06:05:58.483Z,0.00
2022-12-26T06:06:57.807Z,0.00
2022-12-26T06:07:57.806Z,0.00
2022-12-26T06:08:57.790Z,0.00
2022-12-26T06:09:57.779Z,0.00
2022-12-26T06:10:57.784Z,0.00
2022-12-26T06:11:57.779Z,0.00
2022-12-26T06:12:57.745Z,0.00
2022-12-26T06:13:57.760Z,0.00
2022-12-26T06:14:57.722Z,0.00
2022-12-26T06:15:57.767Z,0.00
2022-12-26T06:16:57.745Z,0.00
2022-12-26T06:17:57.686Z,0.00
2022-12-26T06:18:57.681Z,0.00
2022-12-26T06:19:57.677Z,0.00
2022-12-26T06:20:57.670Z,0.00
2022-12-26T06:21:57.714Z,0.00
2022-12-26T06:22:57.635Z,0.00
2022-12-26T06:23:57.639Z,0.00
2022-12-26T06:24:57.626Z,0.00
2022-12-26T06:25:57.619Z,0.00
2022-12-26T06:26:57.598Z,0.00
2022-12-26T06:27:57.582Z,0.00
2022-12-26T06:28:57.572Z,0.00
2022-12-26T06:29:57.574Z,0.00
2022-12-26T06:30:57.683Z,0.00
2022-12-26T06:31:57.640Z,0.00
2022-12-26T06:32:57.549Z,0.00
2022-12-26T06:33:57.554Z,0.00
2022-12-26T06:34:57.509Z,0.00
2022-12-26T06:35:57.485Z,0.00
2022-12-26T06:36:57.524Z,0.00
2022-12-26T06:37:57.521Z,0.00
2022-12-26T06:38:57.454Z,0.00
2022-12-26T06:39:57.445Z,0.00
2022-12-26T06:40:57.485Z,0.00
2022-12-26T06:41:57.428Z,0.00
2022-12-26T06:42:57.449Z,0.00
2022-12-26T06:43:57.417Z,0.00
2022-12-26T06:44:57.406Z,0.00
2022-12-26T06:45:57.424Z,0.00
2022-12-26T06:46:57.462Z,4.00
2022-12-26T06:47:57.375Z,4.00
2022-12-26T06:48:57.348Z,4.00
2022-12-26T06:49:57.341Z,4.00
2022-12-26T06:50:57.370Z,4.00
2022-12-26T06:51:57.321Z,4.00
2022-12-26T06:52:57.304Z,8.00
2022-12-26T06:53:57.309Z,8.00
2022-12-26T06:54:57.289Z,8.00
2022-12-26T06:55:57.345Z,8.00
2022-12-26T06:56:57.269Z,12.00
2022-12-26T06:57:57.256Z,12.00
2022-12-26T06:58:57.248Z,16.00
2022-12-26T06:59:57.229Z,20.00
2022-12-26T07:00:57.281Z,20.00
2022-12-26T07:01:57.310Z,20.00
2022-12-26T07:02:57.285Z,24.00
2022-12-26T07:03:57.197Z,28.00
2022-12-26T07:04:57.181Z,28.00
2022-12-26T07:05:57.182Z,36.00
2022-12-26T07:06:57.161Z,36.00
2022-12-26T07:07:57.150Z,40.00
2022-12-26T07:08:57.131Z,44.00
2022-12-26T07:09:57.166Z,48.00
2022-12-26T07:10:57.135Z,52.00
2022-12-26T07:11:57.097Z,64.00
2022-12-26T07:12:57.088Z,64.00
2022-12-26T07:13:57.109Z,56.00
2022-12-26T07:15:01.601Z,48.00
2022-12-26T07:15:58.101Z,52.00
2022-12-26T07:16:57.109Z,72.00
2022-12-26T07:17:57.052Z,88.00
2022-12-26T07:18:57.044Z,96.00
2022-12-26T07:19:57.034Z,100.00
2022-12-26T07:20:57.019Z,104.00
2022-12-26T07:21:57.003Z,108.00
2022-12-26T07:22:56.991Z,120.00
2022-12-26T07:23:56.975Z,124.00
2022-12-26T07:24:56.961Z,144.00
2022-12-26T07:25:56.962Z,160.00
2022-12-26T07:26:56.939Z,148.00
2022-12-26T07:27:56.935Z,140.00
2022-12-26T07:28:56.926Z,152.00
2022-12-26T07:29:56.908Z,172.00
2022-12-26T07:30:56.919Z,188.00
2022-12-26T07:31:56.930Z,204.00
2022-12-26T07:32:56.874Z,196.00
2022-12-26T07:33:56.881Z,188.00
2022-12-26T07:34:56.858Z,176.00
2022-12-26T07:35:56.854Z,180.00
2022-12-26T07:36:56.835Z,192.00
2022-12-26T07:37:57.404Z,192.00
2022-12-26T07:38:56.810Z,180.00
2022-12-26T07:39:59.197Z,216.00
2022-12-26T07:40:56.818Z,264.00
2022-12-26T07:41:56.775Z,268.00
2022-12-26T07:42:56.767Z,316.00
2022-12-26T07:43:56.770Z,364.00
2022-12-26T07:44:56.748Z,328.00
2022-12-26T07:45:56.788Z,276.00
2022-12-26T07:46:56.723Z,268.00
2022-12-26T07:47:56.724Z,272.00
2022-12-26T07:48:56.760Z,264.00
2022-12-26T07:49:56.709Z,232.00
2022-12-26T07:50:56.707Z,228.00
2022-12-26T07:51:56.680Z,280.00
2022-12-26T07:52:56.657Z,288.00
2022-12-26T07:53:56.654Z,252.00
2022-12-26T07:54:56.637Z,216.00
2022-12-26T07:55:56.642Z,184.00
2022-12-26T07:57:09.310Z,172.00
2022-12-26T07:57:57.605Z,172.00
2022-12-26T07:58:56.594Z,180.00
2022-12-26T07:59:56.572Z,220.00
2022-12-26T08:00:56.709Z,260.00
2022-12-26T08:01:56.841Z,328.00
2022-12-26T08:03:01.148Z,408.00
2022-12-26T08:03:57.578Z,452.00
2022-12-26T08:04:56.534Z,452.00
2022-12-26T08:05:56.552Z,448.00
2022-12-26T08:06:56.506Z,388.00
2022-12-26T08:07:56.490Z,340.00
2022-12-26T08:08:56.501Z,320.00
2022-12-26T08:09:56.479Z,312.00
2022-12-26T08:10:56.478Z,324.00
2022-12-26T08:11:56.491Z,376.00
2022-12-26T08:12:56.444Z,472.00
2022-12-26T08:13:56.430Z,524.00
2022-12-26T08:14:56.432Z,516.00
2022-12-26T08:15:56.410Z,496.00
2022-12-26T08:16:56.493Z,544.00
2022-12-26T08:17:56.378Z,576.00
2022-12-26T08:18:56.374Z,556.00
2022-12-26T08:19:56.363Z,512.00
2022-12-26T08:20:56.385Z,508.00
2022-12-26T08:21:56.367Z,496.00
2022-12-26T08:23:56.323Z,548.00
2022-12-26T08:24:56.311Z,604.00
2022-12-26T08:25:56.292Z,624.00
2022-12-26T08:26:56.314Z,616.00
2022-12-26T08:27:56.293Z,628.00
2022-12-26T08:28:56.259Z,644.00
2022-12-26T08:29:56.270Z,660.00
2022-12-26T08:30:56.267Z,636.00
2022-12-26T08:31:56.237Z,604.00
2022-12-26T08:32:56.217Z,584.00
2022-12-26T08:33:56.211Z,580.00
2022-12-26T08:34:56.202Z,592.00
2022-12-26T08:35:56.250Z,608.00
2022-12-26T08:36:56.173Z,680.00
2022-12-26T08:37:56.179Z,768.00
2022-12-26T08:38:56.153Z,804.00
2022-12-26T08:39:56.136Z,756.00
2022-12-26T08:40:56.240Z,756.00
2022-12-26T08:41:56.117Z,772.00
2022-12-26T08:43:12.239Z,824.00
2022-12-26T08:44:26.247Z,876.00
2022-12-26T08:44:57.089Z,844.00
2022-12-26T08:45:56.354Z,836.00
2022-12-26T08:46:56.062Z,804.00
2022-12-26T08:47:56.057Z,732.00
2022-12-26T08:48:56.320Z,636.00
2022-12-26T08:49:56.025Z,580.00
2022-12-26T08:50:56.339Z,588.00
2022-12-26T08:51:56.027Z,652.00
2022-12-26T08:52:55.997Z,728.00
2022-12-26T08:53:56.012Z,832.00
2022-12-26T08:54:55.976Z,900.00
2022-12-26T08:55:55.988Z,832.00
2022-12-26T08:56:55.947Z,736.00
2022-12-26T08:57:55.944Z,660.00
2022-12-26T08:58:55.945Z,604.00
2022-12-26T08:59:55.925Z,624.00
2022-12-26T09:00:55.958Z,716.00
2022-12-26T09:01:56.031Z,828.00
2022-12-26T09:02:56.085Z,992.00
2022-12-26T09:03:55.897Z,1128.00
2022-12-26T09:04:55.864Z,1152.00
2022-12-26T09:05:57.057Z,1200.00
2022-12-26T09:06:55.848Z,1208.00
2022-12-26T09:07:55.832Z,1228.00
2022-12-26T09:08:55.820Z,1072.00
2022-12-26T09:09:55.832Z,948.00
2022-12-26T09:10:55.815Z,900.00
2022-12-26T09:11:55.790Z,952.00
2022-12-26T09:12:55.790Z,1120.00
2022-12-26T09:13:55.766Z,1232.00
2022-12-26T09:14:55.762Z,1232.00
2022-12-26T09:15:55.794Z,1144.00
2022-12-26T09:16:55.788Z,1152.00
2022-12-26T09:17:55.717Z,1164.00
2022-12-26T09:18:55.717Z,1256.00
2022-12-26T09:19:55.713Z,1480.00
2022-12-26T09:20:55.681Z,1660.00
2022-12-26T09:21:55.703Z,1768.00
2022-12-26T09:22:55.677Z,1732.00
2022-12-26T09:23:55.721Z,1528.00
2022-12-26T09:24:55.648Z,1308.00
2022-12-26T09:25:55.679Z,1156.00
2022-12-26T09:26:55.636Z,1060.00
2022-12-26T09:27:59.012Z,1104.00
2022-12-26T09:28:55.596Z,1256.00
2022-12-26T09:29:55.586Z,1232.00
2022-12-26T09:30:55.680Z,1120.00
2022-12-26T09:31:55.577Z,1268.00
2022-12-26T09:32:55.565Z,1456.00
2022-12-26T09:33:55.559Z,1576.00
2022-12-26T09:34:55.537Z,1608.00
2022-12-26T09:35:59.800Z,1512.00
2022-12-26T09:36:56.510Z,1504.00
2022-12-26T09:37:55.506Z,1716.00
2022-12-26T09:38:55.492Z,1972.00
2022-12-26T09:39:55.479Z,2020.00
2022-12-26T09:40:55.480Z,1960.00
2022-12-26T09:41:55.480Z,1900.00
2022-12-26T09:42:55.441Z,1680.00
2022-12-26T09:43:55.435Z,1568.00
2022-12-26T09:44:55.428Z,1628.00
2022-12-26T09:45:55.454Z,1600.00
2022-12-26T09:46:55.415Z,1352.00
2022-12-26T09:47:55.398Z,1244.00
2022-12-26T09:48:55.377Z,1332.00
2022-12-26T09:49:55.373Z,1420.00
2022-12-26T09:50:55.373Z,1644.00
2022-12-26T09:51:55.343Z,1612.00
2022-12-26T09:52:55.334Z,1720.00
2022-12-26T09:53:55.335Z,1808.00
2022-12-26T09:54:55.315Z,1620.00
2022-12-26T09:55:55.317Z,1520.00
2022-12-26T09:57:03.933Z,1384.00
2022-12-26T09:57:56.307Z,1284.00
2022-12-26T09:58:55.271Z,1192.00
2022-12-26T09:59:55.262Z,1124.00
2022-12-26T10:00:55.278Z,1140.00
2022-12-26T10:01:55.382Z,1180.00
2022-12-26T10:02:55.220Z,1256.00
2022-12-26T10:03:55.216Z,1432.00
2022-12-26T10:04:55.312Z,1604.00
2022-12-26T10:05:55.215Z,1684.00
2022-12-26T10:06:55.183Z,1692.00
2022-12-26T10:07:55.169Z,1704.00
2022-12-26T10:08:55.163Z,1636.00
2022-12-26T10:09:55.147Z,1620.00
2022-12-26T10:10:55.154Z,1672.00
2022-12-26T10:11:55.134Z,1748.00
2022-12-26T10:12:55.122Z,1764.00
2022-12-26T10:13:55.122Z,1736.00
2022-12-26T10:14:55.091Z,1632.00
2022-12-26T10:15:55.183Z,1592.00
2022-12-26T10:16:55.063Z,1732.00
2022-12-26T10:17:55.067Z,1800.00
2022-12-26T10:18:55.075Z,1720.00
2022-12-26T10:19:55.044Z,1672.00
2022-12-26T10:20:55.050Z,1700.00
2022-12-26T10:21:55.023Z,1780.00
2022-12-26T10:22:54.998Z,1824.00
2022-12-26T10:23:54.992Z,1728.00
2022-12-26T10:24:54.985Z,1640.00
2022-12-26T10:25:55.022Z,1628.00
2022-12-26T10:26:54.955Z,1700.00
2022-12-26T10:27:54.950Z,1884.00
2022-12-26T10:28:54.933Z,2148.00
2022-12-26T10:29:54.943Z,2336.00
2022-12-26T10:30:54.959Z,2288.00
2022-12-26T10:31:54.914Z,2196.00
2022-12-26T10:32:54.895Z,2096.00
2022-12-26T10:33:54.888Z,2084.00
2022-12-26T10:34:54.909Z,2004.00
2022-12-26T10:35:54.854Z,2056.00
2022-12-26T10:36:54.883Z,2120.00
2022-12-26T10:37:54.840Z,1984.00
2022-12-26T10:38:54.834Z,1924.00
2022-12-26T10:39:54.836Z,1764.00
2022-12-26T10:40:54.800Z,1644.00
2022-12-26T10:41:54.793Z,1604.00
2022-12-26T10:42:54.785Z,1496.00
2022-12-26T10:43:54.776Z,1396.00
2022-12-26T10:44:54.801Z,1392.00
2022-12-26T10:45:54.773Z,1436.00
2022-12-26T10:46:54.749Z,1360.00
2022-12-26T10:47:54.734Z,1252.00
2022-12-26T10:48:54.718Z,1200.00
2022-12-26T10:49:54.710Z,1204.00
2022-12-26T10:50:54.745Z,1228.00
2022-12-26T10:51:54.683Z,1240.00
2022-12-26T10:52:54.675Z,1324.00
2022-12-26T10:53:54.659Z,1320.00
2022-12-26T10:55:29.233Z,1340.00
2022-12-26T10:55:55.661Z,1388.00
2022-12-26T10:56:54.646Z,1424.00
2022-12-26T10:57:54.635Z,1428.00
2022-12-26T10:58:54.601Z,1388.00
2022-12-26T10:59:54.631Z,1368.00
2022-12-26T11:00:54.595Z,1436.00
2022-12-26T11:01:54.731Z,1584.00
2022-12-26T11:02:54.707Z,1744.00
2022-12-26T11:03:54.661Z,1892.00
2022-12-26T11:05:15.607Z,2004.00
2022-12-26T11:06:10.857Z,2012.00
2022-12-26T11:06:55.516Z,2060.00
2022-12-26T11:07:54.505Z,2116.00
2022-12-26T11:08:54.511Z,2268.00
2022-12-26T11:09:54.503Z,2344.00
2022-12-26T11:10:54.491Z,2224.00
2022-12-26T11:11:54.542Z,2144.00
2022-12-26T11:12:54.451Z,2044.00
2022-12-26T11:14:01.280Z,1904.00
2022-12-26T11:14:55.434Z,1680.00
2022-12-26T11:15:54.497Z,1492.00
2022-12-26T11:16:54.478Z,1456.00
2022-12-26T11:17:54.490Z,1488.00
2022-12-26T11:18:54.398Z,1464.00
2022-12-26T11:19:54.371Z,1496.00
2022-12-26T11:20:54.388Z,1548.00
2022-12-26T11:21:54.365Z,1624.00
2022-12-26T11:22:54.342Z,1936.00
2022-12-26T11:23:54.329Z,2256.00
2022-12-26T11:24:54.316Z,2396.00
2022-12-26T11:25:54.535Z,2488.00
2022-12-26T11:26:54.297Z,2548.00
2022-12-26T11:27:54.294Z,2484.00
2022-12-26T11:28:54.395Z,2324.00
2022-12-26T11:29:54.266Z,2204.00
2022-12-26T11:30:54.360Z,2272.00
2022-12-26T11:31:54.247Z,2600.00
2022-12-26T11:32:54.243Z,3024.00
2022-12-26T11:33:54.237Z,3236.00
2022-12-26T11:34:54.207Z,3360.00
2022-12-26T11:35:54.212Z,3300.00
2022-12-26T11:36:54.208Z,3028.00
2022-12-26T11:37:54.178Z,2696.00
2022-12-26T11:38:54.176Z,2288.00
2022-12-26T11:39:54.209Z,2092.00
2022-12-26T11:40:54.154Z,1984.00
2022-12-26T11:41:54.150Z,1892.00
2022-12-26T11:42:54.233Z,1840.00
2022-12-26T11:43:54.110Z,1864.00
2022-12-26T11:44:54.095Z,1672.00
2022-12-26T11:45:54.314Z,1580.00
2022-12-26T11:46:54.150Z,1832.00
2022-12-26T11:47:54.348Z,2076.00
2022-12-26T11:48:54.057Z,2256.00
2022-12-26T11:49:54.063Z,2320.00
2022-12-26T11:50:54.058Z,2352.00
2022-12-26T11:51:58.908Z,2488.00
2022-12-26T11:52:55.024Z,2664.00
2022-12-26T11:53:54.000Z,2816.00
2022-12-26T11:54:53.994Z,2740.00
2022-12-26T11:55:53.993Z,2520.00
2022-12-26T11:56:53.964Z,2172.00
2022-12-26T11:57:56.933Z,1996.00
2022-12-26T11:58:53.944Z,1952.00
2022-12-26T11:59:53.941Z,1940.00
2022-12-26T12:00:53.938Z,1876.00
2022-12-26T12:01:53.979Z,1800.00
2022-12-26T12:02:53.929Z,1764.00
2022-12-26T12:03:53.907Z,1668.00
2022-12-26T12:04:53.886Z,1640.00
2022-12-26T12:05:53.903Z,1704.00
2022-12-26T12:06:53.861Z,1768.00
2022-12-26T12:07:53.848Z,1876.00
2022-12-26T12:08:53.839Z,1984.00
2022-12-26T12:09:53.827Z,1960.00
2022-12-26T12:10:53.820Z,1964.00
2022-12-26T12:11:53.819Z,2056.00
2022-12-26T12:12:53.791Z,2224.00
2022-12-26T12:13:53.786Z,2312.00
2022-12-26T12:14:54.938Z,2224.00
2022-12-26T12:15:53.780Z,2180.00
2022-12-26T12:16:53.888Z,2140.00
2022-12-26T12:17:53.764Z,2108.00
2022-12-26T12:18:53.735Z,2100.00
2022-12-26T12:19:53.715Z,2252.00
2022-12-26T12:20:53.719Z,2480.00
2022-12-26T12:21:53.712Z,2544.00
2022-12-26T12:22:53.679Z,2440.00
2022-12-26T12:23:53.693Z,2244.00
2022-12-26T12:24:53.669Z,2200.00
2022-12-26T12:25:53.681Z,2304.00
2022-12-26T12:26:58.784Z,2424.00
2022-12-26T12:27:54.631Z,2544.00
2022-12-26T12:28:53.624Z,2548.00
2022-12-26T12:29:53.619Z,2464.00
2022-12-26T12:30:53.622Z,2360.00
2022-12-26T12:31:53.680Z,2288.00
2022-12-26T12:32:57.053Z,2220.00
2022-12-26T12:33:53.569Z,2152.00
2022-12-26T12:34:53.617Z,2236.00
2022-12-26T12:35:53.560Z,2344.00
2022-12-26T12:36:53.537Z,2240.00
2022-12-26T12:37:53.568Z,1964.00
2022-12-26T12:38:56.561Z,1700.00
2022-12-26T12:39:53.508Z,1668.00
2022-12-26T12:40:53.507Z,1692.00
2022-12-26T12:41:53.487Z,1688.00
2022-12-26T12:42:53.476Z,1708.00
2022-12-26T12:43:53.463Z,1752.00
2022-12-26T12:44:55.772Z,1880.00
2022-12-26T12:45:53.485Z,1960.00
2022-12-26T12:46:53.440Z,1856.00
2022-12-26T12:47:53.477Z,1876.00
2022-12-26T12:48:53.422Z,1984.00